Time;durP1;ratioP1;P1;durP2;ratioP2;P2;SDS_P1;SDS_P2;PMS_P1;PMS_P2;Temp;Humidity;BMP_temperature;BMP_pressure;BME280_temperature;BME280_humidity;BME280_pressure;Samples;Min_cycle;Max_cycle;Signal;HPM_P1;HPM_P2
2022/08/30 00:03:58;;;;;;;2.45;1.67;;;22.90;56.30;;;;;;10534272;28;20459;-50
2022/08/30 00:08:58;;;;;;;1.77;1.17;;;22.90;56.30;;;;;;10532715;28;20036;-50
2022/08/30 00:13:59;;;;;;;2.72;1.60;;;22.90;56.30;;;;;;10533735;28;20077;-49
2022/08/30 00:19:01;;;;;;;3.55;1.63;;;22.90;56.40;;;;;;10533580;28;20024;-49
2022/08/30 00:24:02;;;;;;;1.80;1.13;;;22.90;56.40;;;;;;10532710;28;20036;-51
2022/08/30 00:29:02;;;;;;;2.75;1.75;;;22.90;56.40;;;;;;10514574;28;20424;-48
2022/08/30 00:34:03;;;;;;;2.30;1.35;;;22.90;56.40;;;;;;10506511;28;20028;-48
2022/08/30 00:39:05;;;;;;;1.50;1.23;;;22.90;56.40;;;;;;10532837;28;20048;-48
2022/08/30 00:44:06;;;;;;;2.58;1.50;;;22.90;56.40;;;;;;10532824;28;20511;-50
2022/08/30 00:49:10;;;;;;;2.85;1.55;;;22.90;56.50;;;;;;10514434;28;20050;-48
2022/08/30 00:54:11;;;;;;;3.22;2.05;;;22.90;56.50;;;;;;10514257;28;20491;-49
2022/08/30 00:59:13;;;;;;;3.65;1.60;;;22.90;56.50;;;;;;10532166;28;20096;-50
2022/08/30 01:04:15;;;;;;;2.78;1.33;;;22.90;56.50;;;;;;10531567;28;20032;-52
2022/08/30 01:09:15;;;;;;;2.10;1.40;;;22.90;56.50;;;;;;10514015;28;20048;-48
2022/08/30 01:14:17;;;;;;;1.92;1.50;;;22.90;56.50;;;;;;10531846;28;20078;-49
2022/08/30 01:19:40;;;;;;;2.30;1.42;;;22.90;56.50;;;;;;10513312;28;20028;-49
2022/08/30 01:24:42;;;;;;;1.95;1.48;;;22.90;56.50;;;;;;10513832;28;20059;-50
2022/08/30 01:29:43;;;;;;;2.10;1.27;;;22.80;56.50;;;;;;10507152;28;20054;-49
2022/08/30 01:34:48;;;;;;;4.28;1.48;;;22.90;56.50;;;;;;10509159;28;20356;-48
2022/08/30 01:39:48;;;;;;;2.47;1.70;;;22.80;56.50;;;;;;10530981;28;20076;-51
2022/08/30 01:44:49;;;;;;;1.92;1.40;;;22.80;56.50;;;;;;10530321;28;20119;-49
2022/08/30 01:49:51;;;;;;;2.80;1.80;;;22.80;56.50;;;;;;10530575;28;20063;-49
2022/08/30 01:54:52;;;;;;;1.63;1.10;;;22.80;56.60;;;;;;10531235;28;20024;-50
2022/08/30 01:59:54;;;;;;;2.38;1.90;;;22.80;56.60;;;;;;10513389;28;20029;-51
2022/08/30 02:04:55;;;;;;;2.17;1.63;;;22.80;56.60;;;;;;10530737;28;20024;-50
2022/08/30 02:09:56;;;;;;;1.40;1.02;;;22.80;56.60;;;;;;10530351;28;20024;-49
2022/08/30 02:14:57;;;;;;;2.28;1.30;;;22.80;56.60;;;;;;10530367;28;20040;-49
2022/08/30 02:19:58;;;;;;;2.30;1.13;;;22.80;56.60;;;;;;10529810;28;20043;-49
2022/08/30 02:24:59;;;;;;;2.10;1.33;;;22.80;56.60;;;;;;10529189;28;20109;-50
2022/08/30 02:30:00;;;;;;;1.63;1.40;;;22.80;56.60;;;;;;10502583;28;20031;-52
2022/08/30 02:35:01;;;;;;;3.25;1.73;;;22.80;56.70;;;;;;10510692;28;20560;-49
2022/08/30 02:40:03;;;;;;;1.92;1.30;;;22.80;56.60;;;;;;10511100;28;20097;-51
2022/08/30 02:45:05;;;;;;;2.55;1.40;;;22.80;56.60;;;;;;10529692;28;20137;-48
2022/08/30 02:50:08;;;;;;;1.65;1.38;;;22.80;56.70;;;;;;10519004;28;20020;-49
2022/08/30 02:55:10;;;;;;;2.63;1.40;;;22.80;56.60;;;;;;10519378;28;20028;-49
2022/08/30 03:00:15;;;;;;;1.98;1.20;;;22.80;56.60;;;;;;10536831;28;20402;-50
2022/08/30 03:05:17;;;;;;;2.78;1.52;;;22.80;56.60;;;;;;10536714;28;20035;-49
2022/08/30 03:10:17;;;;;;;1.98;1.20;;;22.70;56.60;;;;;;10536672;28;20024;-51
2022/08/30 03:15:19;;;;;;;2.20;1.52;;;22.70;56.60;;;;;;10536880;28;20028;-49
2022/08/30 03:20:21;;;;;;;2.75;1.52;;;22.70;56.60;;;;;;10518664;28;20019;-49
2022/08/30 03:25:22;;;;;;;2.03;1.10;;;22.70;56.70;;;;;;10518299;28;20020;-48
2022/08/30 03:30:22;;;;;;;1.77;1.30;;;22.70;56.70;;;;;;10506513;28;20027;-50
2022/08/30 03:35:23;;;;;;;1.67;1.27;;;22.70;56.60;;;;;;10520417;28;20398;-52
2022/08/30 03:40:24;;;;;;;4.05;1.67;;;22.70;56.70;;;;;;10535572;28;20048;-51
2022/08/30 03:45:25;;;;;;;2.08;1.33;;;22.70;56.70;;;;;;10517201;28;20107;-49
2022/08/30 03:50:26;;;;;;;1.98;1.45;;;22.70;56.70;;;;;;10534860;28;20032;-50
2022/08/30 03:55:28;;;;;;;1.42;1.15;;;22.70;56.70;;;;;;10535069;28;20067;-48
2022/08/30 04:00:29;;;;;;;2.22;1.30;;;22.70;56.70;;;;;;10515638;28;20113;-49
2022/08/30 04:05:30;;;;;;;2.00;1.05;;;22.70;56.70;;;;;;10534805;28;20365;-51
2022/08/30 04:10:31;;;;;;;1.85;1.48;;;22.70;56.70;;;;;;10516034;28;20405;-49
2022/08/30 04:15:32;;;;;;;2.50;1.58;;;22.70;56.70;;;;;;10515835;28;20227;-52
2022/08/30 04:20:33;;;;;;;1.52;1.30;;;22.70;56.70;;;;;;10515107;28;20028;-48
2022/08/30 04:25:36;;;;;;;2.42;1.23;;;22.70;56.70;;;;;;10533648;28;20495;-48
2022/08/30 04:30:42;;;;;;;2.00;1.42;;;22.60;56.70;;;;;;10501193;28;20044;-48
2022/08/30 04:35:46;;;;;;;2.10;1.50;;;22.70;56.70;;;;;;10520009;28;20038;-49
2022/08/30 04:40:47;;;;;;;1.90;1.50;;;22.60;56.70;;;;;;10494532;28;20047;-48
2022/08/30 04:45:48;;;;;;;2.47;1.35;;;22.60;56.70;;;;;;10532841;28;20024;-49
2022/08/30 04:50:49;;;;;;;1.75;1.35;;;22.60;56.70;;;;;;10516417;28;20344;-49
2022/08/30 04:55:50;;;;;;;3.17;1.65;;;22.60;56.70;;;;;;10516000;28;20475;-49
2022/08/30 05:00:50;;;;;;;1.60;1.25;;;22.60;56.70;;;;;;10515558;28;20655;-49
2022/08/30 05:05:51;;;;;;;2.10;1.52;;;22.60;56.80;;;;;;10533869;28;20103;-51
2022/08/30 05:10:52;;;;;;;2.25;1.33;;;22.60;56.70;;;;;;10533744;28;20024;-49
2022/08/30 05:15:53;;;;;;;2.78;1.75;;;22.60;56.80;;;;;;10533378;28;20495;-49
2022/08/30 05:21:11;;;;;;;2.33;1.60;;;22.60;56.80;;;;;;10514885;28;20020;-52
2022/08/30 05:26:16;;;;;;;2.00;1.38;;;22.60;56.80;;;;;;10533326;28;20035;-51
2022/08/30 05:31:29;;;;;;;2.20;1.70;;;22.60;56.80;;;;;;10495509;28;20039;-50
2022/08/30 05:36:33;;;;;;;2.35;1.40;;;22.60;56.80;;;;;;10525946;28;20040;-50
2022/08/30 05:41:35;;;;;;;2.05;1.38;;;22.60;56.80;;;;;;10532485;28;20036;-49
2022/08/30 05:46:38;;;;;;;2.38;1.45;;;22.60;56.80;;;;;;10532224;28;20032;-49
2022/08/30 05:51:39;;;;;;;2.22;1.40;;;22.60;56.90;;;;;;10532391;28;20487;-50
2022/08/30 05:56:44;;;;;;;1.90;1.30;;;22.60;56.90;;;;;;10531944;28;20047;-49
2022/08/30 06:01:46;;;;;;;2.17;1.50;;;22.50;56.90;;;;;;10514303;28;20021;-51
2022/08/30 06:06:47;;;;;;;1.92;1.20;;;22.50;56.90;;;;;;10532383;28;20039;-50
2022/08/30 06:11:47;;;;;;;1.77;1.40;;;22.60;56.90;;;;;;10531521;28;20039;-49
2022/08/30 06:16:49;;;;;;;2.53;1.35;;;22.60;57.00;;;;;;10531695;28;20093;-49
2022/08/30 06:21:50;;;;;;;1.42;1.23;;;22.60;56.90;;;;;;10535302;28;20283;-52
2022/08/30 06:26:51;;;;;;;1.30;1.20;;;22.50;57.60;;;;;;10521330;28;20028;-50
2022/08/30 06:31:52;;;;;;;1.77;1.40;;;22.50;56.90;;;;;;10498501;28;20037;-49
2022/08/30 06:36:53;;;;;;;2.38;1.42;;;22.50;56.90;;;;;;10517956;28;20059;-51
2022/08/30 06:41:54;;;;;;;1.48;1.05;;;22.50;57.00;;;;;;10539171;28;20190;-48
2022/08/30 06:46:55;;;;;;;1.33;1.17;;;22.50;57.00;;;;;;10522027;28;20400;-50
2022/08/30 06:51:55;;;;;;;2.05;1.20;;;22.50;57.00;;;;;;10538881;28;20111;-51
2022/08/30 06:56:56;;;;;;;1.65;1.40;;;22.60;57.10;;;;;;10539168;28;20032;-50
2022/08/30 07:01:57;;;;;;;1.80;1.25;;;22.50;57.00;;;;;;10538934;28;20028;-49
2022/08/30 07:06:58;;;;;;;1.50;1.20;;;22.50;57.00;;;;;;10538766;28;20467;-49
2022/08/30 07:12:02;;;;;;;1.25;0.90;;;22.60;57.00;;;;;;10520067;28;20040;-52
2022/08/30 07:18:49;;;;;;;1.90;1.40;;;22.50;56.90;;;;;;10503723;28;20063;-52
2022/08/30 07:22:25;;;;;;;2.33;1.00;;;22.50;56.90;;;;;;10522996;28;20036;-51
2022/08/30 07:27:25;;;;;;;1.15;1.05;;;22.50;56.90;;;;;;10497649;28;20454;-52
2022/08/30 07:32:26;;;;;;;1.83;1.00;;;22.50;56.90;;;;;;10496860;28;20089;-51
2022/08/30 07:37:29;;;;;;;1.27;0.90;;;22.50;57.60;;;;;;10537707;28;20040;-50
2022/08/30 07:42:29;;;;;;;1.30;1.13;;;22.50;56.90;;;;;;10536843;28;20473;-51
2022/08/30 07:47:31;;;;;;;1.25;1.10;;;22.50;56.90;;;;;;10518950;28;20077;-51
2022/08/30 07:52:33;;;;;;;1.05;0.80;;;22.50;57.00;;;;;;10501958;28;20032;-50
2022/08/30 07:57:34;;;;;;;2.20;1.20;;;22.50;56.90;;;;;;10518866;28;20024;-50
2022/08/30 08:02:36;;;;;;;2.08;1.08;;;22.50;56.60;;;;;;10536885;28;20407;-49
2022/08/30 08:07:36;;;;;;;1.40;0.98;;;22.50;56.50;;;;;;10536531;28;20495;-51
2022/08/30 08:12:37;;;;;;;1.30;0.93;;;22.60;56.60;;;;;;10536268;28;20142;-49
2022/08/30 08:17:38;;;;;;;1.50;1.02;;;22.60;56.70;;;;;;10535595;28;20111;-51
2022/08/30 08:22:38;;;;;;;3.13;0.90;;;22.60;56.70;;;;;;10517267;28;20467;-49
2022/08/30 08:27:39;;;;;;;1.30;0.80;;;22.60;56.60;;;;;;10509742;28;20127;-51
2022/08/30 08:32:40;;;;;;;1.73;0.90;;;22.60;56.60;;;;;;10497132;28;20035;-50
2022/08/30 08:37:41;;;;;;;1.35;0.90;;;22.60;56.60;;;;;;10535028;28;20035;-50
2022/08/30 08:43:09;;;;;;;1.27;0.90;;;22.70;56.60;;;;;;10515633;28;20040;-50
2022/08/30 08:48:51;;;;;;;1.67;0.80;;;22.70;56.50;;;;;;10517405;28;20036;-50
2022/08/30 08:54:13;;;;;;;1.33;0.90;;;22.70;56.40;;;;;;10518727;28;20111;-51
2022/08/30 08:59:15;;;;;;;2.70;1.30;;;22.70;56.40;;;;;;10517405;28;20036;-49
2022/08/30 09:04:25;;;;;;;2.28;1.10;;;22.70;56.20;;;;;;10533694;28;20046;-49
2022/08/30 09:09:34;;;;;;;1.50;0.98;;;22.70;56.10;;;;;;10516461;28;20032;-50
2022/08/30 09:14:50;;;;;;;1.58;1.13;;;22.70;56.20;;;;;;10516708;28;20032;-49
2022/08/30 09:19:50;;;;;;;1.10;0.90;;;22.70;56.00;;;;;;10516409;28;20035;-52
2022/08/30 09:25:05;;;;;;;0.88;0.80;;;22.70;55.90;;;;;;10532917;28;20391;-48
2022/08/30 09:30:17;;;;;;;1.80;0.80;;;22.70;56.10;;;;;;10431952;28;20494;-50
2022/08/30 09:35:35;;;;;;;1.48;0.93;;;22.80;56.00;;;;;;10482277;28;20111;-50
2022/08/30 09:40:48;;;;;;;1.63;0.85;;;22.80;56.00;;;;;;10533002;28;20142;-50
2022/08/30 09:46:08;;;;;;;1.70;1.30;;;22.80;55.80;;;;;;10514862;28;20032;-51
2022/08/30 09:51:09;;;;;;;1.52;1.00;;;22.80;55.90;;;;;;10532566;28;20107;-48
2022/08/30 09:56:22;;;;;;;1.33;0.73;;;22.80;56.00;;;;;;10531387;28;20447;-50
2022/08/30 10:01:45;;;;;;;1.58;0.95;;;22.80;56.10;;;;;;10532137;28;20097;-50
2022/08/30 10:07:06;;;;;;;1.40;0.95;;;22.80;56.80;;;;;;10514088;28;20058;-49
2022/08/30 10:12:25;;;;;;;0.95;0.85;;;22.80;55.90;;;;;;10513563;28;20081;-51
2022/08/30 10:17:58;;;;;;;2.17;1.00;;;22.90;56.10;;;;;;10532100;28;20040;-53
2022/08/30 10:23:27;;;;;;;1.38;0.88;;;22.90;56.00;;;;;;10497510;28;20479;-50
2022/08/30 10:28:54;;;;;;;1.40;0.60;;;22.90;56.10;;;;;;10499943;28;20036;-52
2022/08/30 10:34:04;;;;;;;1.42;0.90;;;22.90;55.90;;;;;;10487578;28;20039;-49
2022/08/30 10:39:08;;;;;;;1.65;0.90;;;22.90;55.90;;;;;;10531200;28;20048;-52
2022/08/30 10:44:36;;;;;;;1.30;0.75;;;23.00;55.90;;;;;;10512927;28;20036;-52
2022/08/30 10:49:45;;;;;;;1.58;0.77;;;22.90;55.90;;;;;;10531496;28;20036;-51
2022/08/30 10:55:13;;;;;;;0.93;0.68;;;23.00;55.90;;;;;;10512983;28;20111;-52
2022/08/30 11:00:41;;;;;;;1.48;0.85;;;23.00;55.90;;;;;;10512539;28;20467;-52
2022/08/30 11:05:53;;;;;;;1.48;0.98;;;23.00;55.90;;;;;;10514513;28;20399;-50
2022/08/30 11:11:15;;;;;;;1.85;0.60;;;23.00;55.90;;;;;;10538526;28;20055;-51
2022/08/30 11:16:18;;;;;;;1.10;0.70;;;23.00;55.90;;;;;;10538039;28;20032;-51
2022/08/30 11:21:32;;;;;;;1.08;0.82;;;23.10;56.00;;;;;;10537916;28;20024;-52
2022/08/30 11:26:48;;;;;;;1.50;0.70;;;23.10;55.90;;;;;;10538418;28;20066;-52
2022/08/30 11:31:49;;;;;;;2.83;0.95;;;23.10;55.80;;;;;;10454752;28;20033;-53
2022/08/30 11:36:49;;;;;;;1.23;0.93;;;23.10;55.80;;;;;;10511628;28;20123;-52
2022/08/30 11:42:10;;;;;;;1.55;1.00;;;23.20;55.80;;;;;;10536547;28;20040;-49
2022/08/30 11:47:50;;;;;;;1.98;0.80;;;23.10;55.70;;;;;;10537197;28;20158;-50
2022/08/30 11:53:25;;;;;;;0.98;0.70;;;23.20;55.90;;;;;;10519561;28;20024;-51
2022/08/30 11:59:10;;;;;;;1.10;0.82;;;23.10;55.80;;;;;;10530787;28;20101;-52
2022/08/30 12:04:20;;;;;;;1.35;0.88;;;23.20;55.80;;;;;;10505757;28;20099;-50
2022/08/30 12:09:23;;;;;;;1.40;0.98;;;23.10;55.80;;;;;;10536089;28;20028;-51
2022/08/30 12:14:53;;;;;;;1.50;0.77;;;23.20;55.70;;;;;;10536167;28;20089;-52
2022/08/30 12:19:56;;;;;;;1.10;0.82;;;23.20;55.80;;;;;;10535051;28;20060;-52
2022/08/30 12:24:57;;;;;;;1.20;0.90;;;23.20;55.70;;;;;;10517416;28;20074;-50
2022/08/30 12:30:04;;;;;;;1.83;1.20;;;23.20;55.60;;;;;;10508839;28;20104;-53
2022/08/30 12:35:06;;;;;;;1.08;0.77;;;23.20;55.70;;;;;;10516932;28;20495;-53
2022/08/30 12:40:17;;;;;;;1.02;0.60;;;23.20;55.80;;;;;;10534726;28;20422;-49
2022/08/30 12:45:21;;;;;;;1.45;0.80;;;23.20;55.80;;;;;;10500857;28;20035;-50
2022/08/30 12:50:29;;;;;;;1.67;1.08;;;23.20;55.80;;;;;;10516736;28;20031;-52
2022/08/30 12:55:47;;;;;;;1.65;0.88;;;23.30;55.70;;;;;;10534099;28;20020;-51
2022/08/30 13:00:48;;;;;;;1.13;0.75;;;23.20;55.70;;;;;;10535000;28;20036;-50
2022/08/30 13:05:50;;;;;;;1.80;0.65;;;23.30;55.70;;;;;;10533905;28;20367;-52
2022/08/30 13:11:09;;;;;;;1.55;0.82;;;23.30;55.70;;;;;;10515805;28;20036;-51
2022/08/30 13:16:37;;;;;;;1.45;0.95;;;23.30;55.60;;;;;;10533726;28;20434;-51
2022/08/30 13:21:51;;;;;;;0.88;0.60;;;23.30;55.60;;;;;;10533130;28;20534;-50
2022/08/30 13:27:10;;;;;;;1.17;0.80;;;23.30;56.10;;;;;;10532476;28;20020;-51
2022/08/30 13:32:12;;;;;;;0.70;0.68;;;23.30;55.50;;;;;;10491238;28;20052;-49
2022/08/30 13:37:24;;;;;;;1.10;0.63;;;23.30;55.70;;;;;;10532192;28;20024;-52
2022/08/30 13:42:25;;;;;;;1.30;0.90;;;23.30;55.70;;;;;;10532352;28;20450;-52
2022/08/30 13:47:26;;;;;;;1.25;0.90;;;23.20;55.60;;;;;;10532691;28;20145;-51
2022/08/30 13:52:27;;;;;;;1.13;0.82;;;23.20;55.40;;;;;;10532380;28;20059;-50
2022/08/30 13:57:30;;;;;;;2.35;0.90;;;23.20;55.40;;;;;;10513667;28;20038;-53
2022/08/30 14:02:31;;;;;;;1.63;0.90;;;23.20;55.50;;;;;;10513766;28;20028;-51
2022/08/30 14:07:31;;;;;;;1.48;0.80;;;23.30;55.40;;;;;;10514227;28;20486;-53
2022/08/30 14:12:32;;;;;;;1.00;0.90;;;23.20;55.50;;;;;;10531893;28;20349;-50
2022/08/30 14:17:34;;;;;;;1.55;0.93;;;23.20;55.50;;;;;;10531996;28;20409;-51
2022/08/30 14:22:35;;;;;;;1.65;1.40;;;23.20;55.10;;;;;;10531552;28;20051;-52
2022/08/30 14:27:35;;;;;;;1.20;0.85;;;23.20;56.00;;;;;;10524817;28;20031;-52
2022/08/30 14:32:36;;;;;;;1.67;0.80;;;23.20;56.00;;;;;;10492197;28;21167;-51
2022/08/30 14:37:37;;;;;;;1.38;0.90;;;23.20;55.20;;;;;;10513490;28;20119;-51
2022/08/30 14:42:38;;;;;;;1.73;0.85;;;23.20;55.40;;;;;;10534125;28;20387;-52
2022/08/30 14:47:38;;;;;;;1.52;0.77;;;23.20;55.10;;;;;;10521214;28;20036;-52
2022/08/30 14:52:39;;;;;;;1.20;0.60;;;23.20;55.10;;;;;;10521195;28;20062;-50
2022/08/30 14:57:40;;;;;;;1.58;1.08;;;23.20;55.10;;;;;;10539080;28;20487;-52
2022/08/30 15:02:42;;;;;;;1.58;1.15;;;23.20;55.10;;;;;;10538795;28;20634;-51
2022/08/30 15:07:43;;;;;;;1.67;1.23;;;23.10;55.00;;;;;;10538825;28;20027;-48
2022/08/30 15:12:50;;;;;;;0.90;0.70;;;23.10;54.80;;;;;;10538545;28;20669;-51
2022/08/30 15:17:50;;;;;;;1.00;0.77;;;23.20;54.90;;;;;;10538023;28;20051;-51
2022/08/30 15:22:51;;;;;;;1.40;0.93;;;23.10;55.00;;;;;;10503290;28;20510;-49
2022/08/30 15:27:52;;;;;;;1.63;1.00;;;23.20;55.00;;;;;;10528810;28;20464;-51
2022/08/30 15:32:52;;;;;;;1.13;0.65;;;23.10;54.80;;;;;;10482654;28;20020;-50
2022/08/30 15:37:53;;;;;;;1.38;0.95;;;23.10;54.80;;;;;;10537082;28;20153;-51
2022/08/30 15:42:55;;;;;;;1.73;0.70;;;23.20;54.80;;;;;;10537573;28;20054;-52
2022/08/30 15:47:59;;;;;;;1.65;0.60;;;23.20;54.90;;;;;;10536959;28;20036;-51
2022/08/30 15:53:00;;;;;;;2.60;1.17;;;23.20;54.70;;;;;;10535753;28;20028;-52
2022/08/30 15:58:01;;;;;;;1.52;1.00;;;23.10;54.50;;;;;;10519116;28;20032;-52
2022/08/30 16:03:02;;;;;;;1.02;0.90;;;23.10;54.60;;;;;;10536419;28;20027;-53
2022/08/30 16:08:03;;;;;;;1.42;1.02;;;23.20;54.90;;;;;;10536617;28;20084;-52
2022/08/30 16:13:04;;;;;;;3.00;0.80;;;23.10;54.60;;;;;;10536256;28;20028;-52
2022/08/30 16:18:05;;;;;;;1.23;0.82;;;23.10;54.90;;;;;;10535971;28;20115;-51
2022/08/30 16:23:07;;;;;;;1.70;1.00;;;23.20;54.90;;;;;;10535597;28;20032;-50
2022/08/30 16:28:07;;;;;;;1.30;0.90;;;23.10;54.50;;;;;;10506481;28;20066;-53
2022/08/30 16:33:08;;;;;;;1.17;0.70;;;23.20;54.80;;;;;;10500566;28;20043;-53
2022/08/30 16:38:09;;;;;;;1.40;0.90;;;23.10;54.60;;;;;;10534841;28;20659;-51
2022/08/30 16:43:10;;;;;;;1.23;0.82;;;23.20;54.80;;;;;;10534789;28;20027;-51
2022/08/30 16:48:12;;;;;;;1.42;0.85;;;23.20;54.80;;;;;;10534392;28;20028;-49
2022/08/30 16:53:13;;;;;;;1.30;0.80;;;23.10;54.60;;;;;;10534280;28;20024;-50
2022/08/30 16:58:13;;;;;;;1.15;0.60;;;23.20;54.40;;;;;;10534366;28;20028;-52
2022/08/30 17:03:15;;;;;;;1.02;0.80;;;23.10;54.40;;;;;;10533914;28;20123;-51
2022/08/30 17:08:16;;;;;;;0.98;0.73;;;23.10;54.50;;;;;;10515295;28;20032;-51
2022/08/30 17:13:17;;;;;;;1.05;0.68;;;23.10;54.60;;;;;;10533633;28;20047;-52
2022/08/30 17:18:18;;;;;;;1.55;1.17;;;23.10;54.80;;;;;;10533302;28;20028;-50
2022/08/30 17:23:20;;;;;;;1.63;1.00;;;23.10;54.60;;;;;;10533167;28;20503;-51
2022/08/30 17:28:21;;;;;;;0.90;0.77;;;23.20;54.80;;;;;;10520494;28;20545;-48
2022/08/30 17:33:22;;;;;;;1.90;0.90;;;23.10;54.70;;;;;;10482085;28;20024;-51
2022/08/30 17:38:22;;;;;;;1.65;0.80;;;23.10;54.70;;;;;;10532502;28;20048;-52
2022/08/30 17:43:23;;;;;;;4.38;1.20;;;23.20;54.80;;;;;;10514615;28;20047;-50
2022/08/30 17:48:24;;;;;;;2.80;0.60;;;23.20;54.80;;;;;;10514273;28;20023;-52
2022/08/30 17:53:26;;;;;;;2.35;0.90;;;23.20;54.90;;;;;;10532003;28;20059;-49
2022/08/30 17:58:26;;;;;;;1.95;0.93;;;23.10;54.70;;;;;;10514249;28;20047;-49
2022/08/30 18:03:27;;;;;;;1.42;0.73;;;23.10;54.70;;;;;;10531858;28;20039;-51
2022/08/30 18:08:28;;;;;;;1.20;0.77;;;23.10;54.80;;;;;;10532122;28;20032;-51
2022/08/30 18:13:29;;;;;;;2.15;0.90;;;23.10;54.80;;;;;;10532126;28;20111;-50
2022/08/30 18:18:30;;;;;;;2.25;0.82;;;23.10;54.60;;;;;;10513220;28;20043;-53
2022/08/30 18:23:31;;;;;;;1.58;1.15;;;23.10;54.70;;;;;;10531501;28;20024;-49
2022/08/30 18:28:32;;;;;;;1.67;1.30;;;23.20;54.80;;;;;;10517386;28;20024;-50
2022/08/30 18:33:33;;;;;;;1.08;0.80;;;23.20;54.80;;;;;;10465941;28;20043;-52
2022/08/30 18:38:34;;;;;;;1.30;0.82;;;23.10;54.70;;;;;;10531321;28;20079;-51
2022/08/30 18:43:36;;;;;;;0.90;0.70;;;23.10;54.80;;;;;;10531287;28;20583;-49
2022/08/30 18:48:38;;;;;;;1.02;0.73;;;23.10;54.70;;;;;;10531239;28;20111;-51
2022/08/30 18:53:39;;;;;;;1.58;1.02;;;23.10;54.80;;;;;;10513115;28;20107;-51
2022/08/30 18:58:39;;;;;;;1.50;0.70;;;23.10;54.90;;;;;;10513119;28;20294;-51
2022/08/30 19:03:41;;;;;;;1.27;0.85;;;23.20;54.80;;;;;;10531656;28;20158;-52
2022/08/30 19:08:44;;;;;;;1.35;0.82;;;23.10;54.80;;;;;;10529713;28;20029;-50
2022/08/30 19:13:44;;;;;;;1.17;0.82;;;23.20;54.90;;;;;;10529334;28;20383;-50
2022/08/30 19:18:45;;;;;;;0.63;0.50;;;23.10;54.90;;;;;;10528762;28;20032;-52
2022/08/30 19:23:46;;;;;;;0.90;0.80;;;23.10;54.90;;;;;;10527875;28;20024;-52
2022/08/30 19:28:47;;;;;;;1.55;0.70;;;23.10;54.80;;;;;;10515249;28;20029;-52
2022/08/30 19:33:47;;;;;;;1.02;0.70;;;23.20;54.80;;;;;;10507235;28;20023;-51
2022/08/30 19:38:48;;;;;;;1.55;0.85;;;23.20;54.80;;;;;;10517235;28;20055;-52
2022/08/30 19:43:49;;;;;;;1.52;0.77;;;23.20;54.90;;;;;;10517248;28;20482;-51
2022/08/30 19:48:50;;;;;;;1.13;0.85;;;23.10;54.80;;;;;;10516960;28;20035;-52
2022/08/30 19:53:51;;;;;;;0.88;0.70;;;23.20;54.90;;;;;;10516731;28;20028;-51
2022/08/30 19:58:52;;;;;;;1.38;1.00;;;23.20;54.90;;;;;;10516896;28;20020;-50
2022/08/30 20:03:53;;;;;;;0.90;0.70;;;23.10;54.80;;;;;;10534355;28;20059;-50
2022/08/30 20:08:54;;;;;;;1.63;0.90;;;23.20;54.90;;;;;;10516275;28;20107;-50
2022/08/30 20:13:55;;;;;;;0.77;0.75;;;23.20;54.90;;;;;;10516425;28;20046;-49
2022/08/30 20:18:56;;;;;;;1.73;0.70;;;23.10;55.40;;;;;;10534574;28;20048;-48
2022/08/30 20:23:57;;;;;;;1.30;0.90;;;23.10;54.80;;;;;;10516063;28;20032;-50
2022/08/30 20:28:58;;;;;;;0.93;0.80;;;23.20;54.90;;;;;;10497475;28;20124;-48
2022/08/30 20:34:00;;;;;;;1.08;0.68;;;23.20;54.90;;;;;;10487886;28;20031;-50
2022/08/30 20:39:01;;;;;;;1.35;0.80;;;23.20;54.90;;;;;;10514263;28;20059;-51
2022/08/30 20:44:05;;;;;;;1.17;0.65;;;23.20;54.90;;;;;;10533228;28;20024;-51
2022/08/30 20:49:06;;;;;;;1.40;1.23;;;23.20;54.90;;;;;;10514843;28;20119;-51
2022/08/30 20:54:07;;;;;;;1.00;0.90;;;23.10;54.90;;;;;;10532552;28;20542;-49
2022/08/30 20:59:08;;;;;;;1.95;0.90;;;23.20;54.90;;;;;;10533407;28;20059;-52
2022/08/30 21:04:09;;;;;;;0.68;0.50;;;23.20;55.00;;;;;;10514325;28;20055;-52
2022/08/30 21:09:10;;;;;;;1.83;0.98;;;23.20;55.00;;;;;;10532982;28;20445;-51
2022/08/30 21:14:11;;;;;;;1.17;0.93;;;23.10;55.00;;;;;;10514045;28;20161;-50
2022/08/30 21:19:12;;;;;;;2.53;0.88;;;23.10;55.00;;;;;;10513503;28;20036;-49
2022/08/30 21:24:13;;;;;;;1.30;0.80;;;23.10;55.10;;;;;;10531410;28;20058;-52
2022/08/30 21:29:14;;;;;;;1.48;1.10;;;23.10;55.10;;;;;;10510943;28;20093;-52
2022/08/30 21:34:14;;;;;;;1.80;1.00;;;23.10;55.00;;;;;;10505335;28;20040;-50
2022/08/30 21:39:25;;;;;;;1.20;0.75;;;23.10;55.10;;;;;;10530806;28;20453;-49
2022/08/30 21:44:26;;;;;;;0.95;0.63;;;23.10;55.10;;;;;;10531905;28;20436;-48
2022/08/30 21:49:27;;;;;;;1.95;0.93;;;23.10;55.20;;;;;;10512878;28;20107;-52
2022/08/30 21:54:27;;;;;;;0.63;0.57;;;23.10;55.10;;;;;;10530742;28;20035;-49
2022/08/30 21:59:28;;;;;;;1.17;0.85;;;23.10;55.20;;;;;;10512624;28;20471;-49
2022/08/30 22:04:29;;;;;;;1.10;0.90;;;23.00;55.10;;;;;;10530525;28;20496;-51
2022/08/30 22:09:30;;;;;;;1.05;0.80;;;23.10;55.20;;;;;;10529886;28;20059;-53
2022/08/30 22:14:31;;;;;;;1.98;0.90;;;23.10;55.30;;;;;;10529810;28;20024;-52
2022/08/30 22:19:32;;;;;;;0.77;0.73;;;23.10;55.30;;;;;;10529896;28;20382;-51
2022/08/30 22:24:33;;;;;;;1.58;0.75;;;23.10;55.30;;;;;;10530189;28;20039;-52
2022/08/30 22:29:33;;;;;;;1.25;0.70;;;23.10;55.30;;;;;;10488999;28;20027;-51
2022/08/30 22:34:34;;;;;;;1.60;0.90;;;23.10;55.30;;;;;;10490042;28;20259;-53
2022/08/30 22:39:35;;;;;;;2.40;0.98;;;23.00;55.30;;;;;;10529969;28;20054;-50
2022/08/30 22:44:36;;;;;;;1.65;1.05;;;23.00;55.30;;;;;;10530446;28;20032;-48
2022/08/30 22:49:36;;;;;;;3.97;0.85;;;23.00;55.30;;;;;;10511035;28;20028;-51
2022/08/30 22:54:37;;;;;;;1.58;0.98;;;23.00;55.30;;;;;;10529402;28;20085;-50
2022/08/30 22:59:38;;;;;;;2.22;0.88;;;23.00;55.30;;;;;;10529099;28;20111;-50
2022/08/30 23:04:38;;;;;;;1.30;0.80;;;23.00;55.30;;;;;;10534009;28;20028;-50
2022/08/30 23:09:39;;;;;;;1.73;0.93;;;23.00;55.30;;;;;;10536916;28;20548;-49
2022/08/30 23:14:40;;;;;;;1.58;0.90;;;23.00;55.40;;;;;;10536470;28;20636;-49
2022/08/30 23:19:41;;;;;;;1.13;0.77;;;23.00;55.40;;;;;;10536771;28;20473;-50
